sensor_id;sensor_type;location;lat;lon;timestamp;temperature;humidity
66019;HTU21D;52787;51.084;5.816;2023-03-01T00:01:30;4.06;59.29
66019;HTU21D;52787;51.084;5.816;2023-03-01T00:03:58;4.00;59.43
66019;HTU21D;52787;51.084;5.816;2023-03-01T00:06:25;3.95;59.54
66019;HTU21D;52787;51.084;5.816;2023-03-01T00:08:52;3.87;59.78
66019;HTU21D;52787;51.084;5.816;2023-03-01T00:11:24;3.85;59.93
66019;HTU21D;52787;51.084;5.816;2023-03-01T00:13:53;3.80;60.01
66019;HTU21D;52787;51.084;5.816;2023-03-01T00:16:25;3.77;60.02
66019;HTU21D;52787;51.084;5.816;2023-03-01T00:18:56;3.75;60.25
66019;HTU21D;52787;51.084;5.816;2023-03-01T00:21:23;3.75;60.03
66019;HTU21D;52787;51.084;5.816;2023-03-01T00:23:50;3.71;60.14
66019;HTU21D;52787;51.084;5.816;2023-03-01T00:26:18;3.72;60.20
66019;HTU21D;52787;51.084;5.816;2023-03-01T00:28:45;3.73;59.97
66019;HTU21D;52787;51.084;5.816;2023-03-01T00:31:14;3.74;60.03
66019;HTU21D;52787;51.084;5.816;2023-03-01T00:33:42;3.73;59.93
66019;HTU21D;52787;51.084;5.816;2023-03-01T00:36:10;3.71;60.12
66019;HTU21D;52787;51.084;5.816;2023-03-01T00:38:38;3.69;60.44
66019;HTU21D;52787;51.084;5.816;2023-03-01T00:41:11;3.71;60.45
66019;HTU21D;52787;51.084;5.816;2023-03-01T00:43:39;3.71;60.60
66019;HTU21D;52787;51.084;5.816;2023-03-01T00:46:08;3.69;60.92
66019;HTU21D;52787;51.084;5.816;2023-03-01T00:48:36;3.70;60.93
66019;HTU21D;52787;51.084;5.816;2023-03-01T00:51:14;3.70;61.04
66019;HTU21D;52787;51.084;5.816;2023-03-01T00:53:42;3.70;60.93
66019;HTU21D;52787;51.084;5.816;2023-03-01T00:56:13;3.65;60.91
66019;HTU21D;52787;51.084;5.816;2023-03-01T00:58:40;3.61;60.95
66019;HTU21D;52787;51.084;5.816;2023-03-01T01:01:28;3.61;61.07
66019;HTU21D;52787;51.084;5.816;2023-03-01T01:04:02;3.58;60.96
66019;HTU21D;52787;51.084;5.816;2023-03-01T01:06:32;3.52;61.23
66019;HTU21D;52787;51.084;5.816;2023-03-01T01:09:03;3.47;61.44
66019;HTU21D;52787;51.084;5.816;2023-03-01T01:11:30;3.50;61.38
66019;HTU21D;52787;51.084;5.816;2023-03-01T01:13:57;3.52;61.29
66019;HTU21D;52787;51.084;5.816;2023-03-01T01:16:26;3.52;61.02
66019;HTU21D;52787;51.084;5.816;2023-03-01T01:18:56;3.49;61.06
66019;HTU21D;52787;51.084;5.816;2023-03-01T01:21:24;3.42;61.21
66019;HTU21D;52787;51.084;5.816;2023-03-01T01:23:51;3.34;61.42
66019;HTU21D;52787;51.084;5.816;2023-03-01T01:26:22;3.28;61.60
66019;HTU21D;52787;51.084;5.816;2023-03-01T01:28:50;3.25;61.93
66019;HTU21D;52787;51.084;5.816;2023-03-01T01:31:17;3.26;61.99
66019;HTU21D;52787;51.084;5.816;2023-03-01T01:33:43;3.30;61.96
66019;HTU21D;52787;51.084;5.816;2023-03-01T01:36:09;3.27;61.89
66019;HTU21D;52787;51.084;5.816;2023-03-01T01:38:37;3.26;62.02
66019;HTU21D;52787;51.084;5.816;2023-03-01T01:41:05;3.27;61.85
66019;HTU21D;52787;51.084;5.816;2023-03-01T01:43:35;3.28;61.67
66019;HTU21D;52787;51.084;5.816;2023-03-01T01:46:23;3.29;61.85
66019;HTU21D;52787;51.084;5.816;2023-03-01T01:48:58;3.27;61.73
66019;HTU21D;52787;51.084;5.816;2023-03-01T01:51:34;3.23;62.02
66019;HTU21D;52787;51.084;5.816;2023-03-01T01:54:10;3.19;62.06
66019;HTU21D;52787;51.084;5.816;2023-03-01T01:56:44;3.18;62.02
66019;HTU21D;52787;51.084;5.816;2023-03-01T01:59:14;3.13;62.17
66019;HTU21D;52787;51.084;5.816;2023-03-01T02:01:40;3.06;62.31
66019;HTU21D;52787;51.084;5.816;2023-03-01T02:04:06;3.04;62.41
66019;HTU21D;52787;51.084;5.816;2023-03-01T02:06:38;3.02;62.54
66019;HTU21D;52787;51.084;5.816;2023-03-01T02:09:13;3.02;62.66
66019;HTU21D;52787;51.084;5.816;2023-03-01T02:11:40;3.00;62.73
66019;HTU21D;52787;51.084;5.816;2023-03-01T02:14:06;2.96;62.82
66019;HTU21D;52787;51.084;5.816;2023-03-01T02:16:33;2.90;63.08
66019;HTU21D;52787;51.084;5.816;2023-03-01T02:18:59;2.88;63.27
66019;HTU21D;52787;51.084;5.816;2023-03-01T02:22:34;2.91;63.08
66019;HTU21D;52787;51.084;5.816;2023-03-01T02:27:25;2.94;63.07
66019;HTU21D;52787;51.084;5.816;2023-03-01T02:29:55;2.91;62.96
66019;HTU21D;52787;51.084;5.816;2023-03-01T02:32:20;2.83;63.29
66019;HTU21D;52787;51.084;5.816;2023-03-01T02:34:55;2.78;63.59
66019;HTU21D;52787;51.084;5.816;2023-03-01T02:37:24;2.78;63.72
66019;HTU21D;52787;51.084;5.816;2023-03-01T02:39:59;2.74;63.68
66019;HTU21D;52787;51.084;5.816;2023-03-01T02:42:40;2.72;63.67
66019;HTU21D;52787;51.084;5.816;2023-03-01T02:45:13;2.68;63.97
66019;HTU21D;52787;51.084;5.816;2023-03-01T02:47:39;2.69;63.82
66019;HTU21D;52787;51.084;5.816;2023-03-01T02:56:15;2.58;64.05
66019;HTU21D;52787;51.084;5.816;2023-03-01T02:58:43;2.55;64.34
66019;HTU21D;52787;51.084;5.816;2023-03-01T03:01:17;2.56;64.53
66019;HTU21D;52787;51.084;5.816;2023-03-01T03:03:44;2.56;64.57
66019;HTU21D;52787;51.084;5.816;2023-03-01T03:06:10;2.55;64.67
66019;HTU21D;52787;51.084;5.816;2023-03-01T03:08:36;2.56;64.73
66019;HTU21D;52787;51.084;5.816;2023-03-01T03:11:02;2.58;64.85
66019;HTU21D;52787;51.084;5.816;2023-03-01T03:13:28;2.58;64.79
66019;HTU21D;52787;51.084;5.816;2023-03-01T03:15:55;2.56;64.78
66019;HTU21D;52787;51.084;5.816;2023-03-01T03:18:22;2.56;64.60
66019;HTU21D;52787;51.084;5.816;2023-03-01T03:20:52;2.54;64.58
66019;HTU21D;52787;51.084;5.816;2023-03-01T03:23:22;2.52;64.53
66019;HTU21D;52787;51.084;5.816;2023-03-01T03:25:49;2.50;64.69
66019;HTU21D;52787;51.084;5.816;2023-03-01T03:28:15;2.42;65.17
66019;HTU21D;52787;51.084;5.816;2023-03-01T03:30:42;2.39;65.40
66019;HTU21D;52787;51.084;5.816;2023-03-01T03:33:10;2.35;65.44
66019;HTU21D;52787;51.084;5.816;2023-03-01T03:35:45;2.30;65.50
66019;HTU21D;52787;51.084;5.816;2023-03-01T03:38:14;2.28;65.64
66019;HTU21D;52787;51.084;5.816;2023-03-01T03:40:48;2.30;65.59
66019;HTU21D;52787;51.084;5.816;2023-03-01T03:43:17;2.28;65.76
66019;HTU21D;52787;51.084;5.816;2023-03-01T03:45:48;2.26;65.91
66019;HTU21D;52787;51.084;5.816;2023-03-01T03:48:16;2.22;66.17
66019;HTU21D;52787;51.084;5.816;2023-03-01T03:50:48;2.20;66.33
66019;HTU21D;52787;51.084;5.816;2023-03-01T03:53:16;2.19;66.40
66019;HTU21D;52787;51.084;5.816;2023-03-01T03:55:42;2.19;66.49
66019;HTU21D;52787;51.084;5.816;2023-03-01T03:58:11;2.19;66.44
66019;HTU21D;52787;51.084;5.816;2023-03-01T04:00:40;2.16;66.59
66019;HTU21D;52787;51.084;5.816;2023-03-01T04:03:08;2.17;66.55
66019;HTU21D;52787;51.084;5.816;2023-03-01T04:05:35;2.17;66.30
66019;HTU21D;52787;51.084;5.816;2023-03-01T04:08:01;2.19;66.36
66019;HTU21D;52787;51.084;5.816;2023-03-01T04:10:36;2.14;66.63
66019;HTU21D;52787;51.084;5.816;2023-03-01T04:13:05;2.08;66.82
66019;HTU21D;52787;51.084;5.816;2023-03-01T04:15:33;2.06;67.23
66019;HTU21D;52787;51.084;5.816;2023-03-01T04:18:00;2.11;67.07
66019;HTU21D;52787;51.084;5.816;2023-03-01T04:20:29;2.14;67.07
66019;HTU21D;52787;51.084;5.816;2023-03-01T04:25:42;2.09;67.20
66019;HTU21D;52787;51.084;5.816;2023-03-01T04:28:20;2.08;67.37
66019;HTU21D;52787;51.084;5.816;2023-03-01T04:30:46;2.09;67.12
66019;HTU21D;52787;51.084;5.816;2023-03-01T04:33:12;2.11;66.94
66019;HTU21D;52787;51.084;5.816;2023-03-01T04:35:38;2.11;66.84
66019;HTU21D;52787;51.084;5.816;2023-03-01T04:38:05;2.13;66.82
66019;HTU21D;52787;51.084;5.816;2023-03-01T04:40:32;2.15;66.62
66019;HTU21D;52787;51.084;5.816;2023-03-01T04:42:58;2.10;66.72
66019;HTU21D;52787;51.084;5.816;2023-03-01T04:45:24;2.00;66.98
66019;HTU21D;52787;51.084;5.816;2023-03-01T04:47:50;1.95;67.31
66019;HTU21D;52787;51.084;5.816;2023-03-01T04:50:19;1.92;67.51
66019;HTU21D;52787;51.084;5.816;2023-03-01T04:52:47;1.88;67.66
66019;HTU21D;52787;51.084;5.816;2023-03-01T04:55:13;1.88;67.62
66019;HTU21D;52787;51.084;5.816;2023-03-01T04:57:39;1.86;67.61
66019;HTU21D;52787;51.084;5.816;2023-03-01T05:00:09;1.83;67.83
66019;HTU21D;52787;51.084;5.816;2023-03-01T05:02:49;1.82;67.90
66019;HTU21D;52787;51.084;5.816;2023-03-01T05:05:30;1.81;68.13
66019;HTU21D;52787;51.084;5.816;2023-03-01T05:08:00;1.79;68.38
66019;HTU21D;52787;51.084;5.816;2023-03-01T05:10:29;1.78;68.54
66019;HTU21D;52787;51.084;5.816;2023-03-01T05:12:57;1.75;68.81
66019;HTU21D;52787;51.084;5.816;2023-03-01T05:15:28;1.71;69.00
66019;HTU21D;52787;51.084;5.816;2023-03-01T05:17:57;1.69;69.21
66019;HTU21D;52787;51.084;5.816;2023-03-01T05:20:28;1.72;69.17
66019;HTU21D;52787;51.084;5.816;2023-03-01T05:22:57;1.70;69.20
66019;HTU21D;52787;51.084;5.816;2023-03-01T05:25:24;1.70;69.22
66019;HTU21D;52787;51.084;5.816;2023-03-01T05:27:51;1.71;69.26
66019;HTU21D;52787;51.084;5.816;2023-03-01T05:30:17;1.67;69.33
66019;HTU21D;52787;51.084;5.816;2023-03-01T05:32:46;1.66;69.54
66019;HTU21D;52787;51.084;5.816;2023-03-01T05:35:16;1.67;69.45
66019;HTU21D;52787;51.084;5.816;2023-03-01T05:37:48;1.64;69.39
66019;HTU21D;52787;51.084;5.816;2023-03-01T05:40:17;1.61;69.46
66019;HTU21D;52787;51.084;5.816;2023-03-01T05:42:47;1.60;69.42
66019;HTU21D;52787;51.084;5.816;2023-03-01T05:45:21;1.62;69.24
66019;HTU21D;52787;51.084;5.816;2023-03-01T05:47:49;1.55;69.19
66019;HTU21D;52787;51.084;5.816;2023-03-01T05:50:26;1.54;69.19
66019;HTU21D;52787;51.084;5.816;2023-03-01T05:55:26;1.47;69.42
66019;HTU21D;52787;51.084;5.816;2023-03-01T05:57:52;1.43;69.50
66019;HTU21D;52787;51.084;5.816;2023-03-01T06:00:19;1.40;69.58
66019;HTU21D;52787;51.084;5.816;2023-03-01T06:02:47;1.39;69.59
66019;HTU21D;52787;51.084;5.816;2023-03-01T06:05:14;1.46;69.16
66019;HTU21D;52787;51.084;5.816;2023-03-01T06:07:41;1.49;68.60
66019;HTU21D;52787;51.084;5.816;2023-03-01T06:10:09;1.51;68.48
66019;HTU21D;52787;51.084;5.816;2023-03-01T06:12:37;1.51;68.39
66019;HTU21D;52787;51.084;5.816;2023-03-01T06:15:05;1.45;68.44
66019;HTU21D;52787;51.084;5.816;2023-03-01T06:17:33;1.46;68.42
66019;HTU21D;52787;51.084;5.816;2023-03-01T06:20:15;1.51;67.92
66019;HTU21D;52787;51.084;5.816;2023-03-01T06:22:44;1.53;67.59
66019;HTU21D;52787;51.084;5.816;2023-03-01T06:25:13;1.56;67.45
66019;HTU21D;52787;51.084;5.816;2023-03-01T06:27:41;1.56;67.49
66019;HTU21D;52787;51.084;5.816;2023-03-01T06:30:09;1.55;67.38
66019;HTU21D;52787;51.084;5.816;2023-03-01T06:32:37;1.55;67.40
66019;HTU21D;52787;51.084;5.816;2023-03-01T06:35:11;1.56;67.39
66019;HTU21D;52787;51.084;5.816;2023-03-01T06:37:38;1.60;67.07
66019;HTU21D;52787;51.084;5.816;2023-03-01T06:40:06;1.63;66.98
66019;HTU21D;52787;51.084;5.816;2023-03-01T06:42:35;1.61;66.88
66019;HTU21D;52787;51.084;5.816;2023-03-01T06:45:03;1.62;66.98
66019;HTU21D;52787;51.084;5.816;2023-03-01T06:47:30;1.60;66.94
66019;HTU21D;52787;51.084;5.816;2023-03-01T06:50:02;1.60;67.05
66019;HTU21D;52787;51.084;5.816;2023-03-01T06:52:28;1.53;67.41
66019;HTU21D;52787;51.084;5.816;2023-03-01T06:54:54;1.52;67.68
66019;HTU21D;52787;51.084;5.816;2023-03-01T06:57:20;1.55;67.57
66019;HTU21D;52787;51.084;5.816;2023-03-01T06:59:47;1.58;67.41
66019;HTU21D;52787;51.084;5.816;2023-03-01T07:02:14;1.61;67.19
66019;HTU21D;52787;51.084;5.816;2023-03-01T07:04:41;1.62;67.06
66019;HTU21D;52787;51.084;5.816;2023-03-01T07:07:07;1.63;66.88
66019;HTU21D;52787;51.084;5.816;2023-03-01T07:09:33;1.61;67.00
66019;HTU21D;52787;51.084;5.816;2023-03-01T07:11:59;1.61;67.10
66019;HTU21D;52787;51.084;5.816;2023-03-01T07:14:25;1.61;67.27
66019;HTU21D;52787;51.084;5.816;2023-03-01T07:16:52;1.61;67.42
66019;HTU21D;52787;51.084;5.816;2023-03-01T07:19:19;1.60;67.43
66019;HTU21D;52787;51.084;5.816;2023-03-01T07:21:45;1.62;67.46
66019;HTU21D;52787;51.084;5.816;2023-03-01T07:24:11;1.62;67.66
66019;HTU21D;52787;51.084;5.816;2023-03-01T07:26:37;1.69;67.47
66019;HTU21D;52787;51.084;5.816;2023-03-01T07:29:05;1.70;67.48
66019;HTU21D;52787;51.084;5.816;2023-03-01T07:31:32;1.69;67.45
66019;HTU21D;52787;51.084;5.816;2023-03-01T07:33:58;1.76;67.47
66019;HTU21D;52787;51.084;5.816;2023-03-01T07:36:24;1.83;67.34
66019;HTU21D;52787;51.084;5.816;2023-03-01T07:38:50;1.92;66.91
66019;HTU21D;52787;51.084;5.816;2023-03-01T07:41:17;1.97;66.60
66019;HTU21D;52787;51.084;5.816;2023-03-01T07:43:43;2.02;66.43
66019;HTU21D;52787;51.084;5.816;2023-03-01T07:46:09;2.06;66.27
66019;HTU21D;52787;51.084;5.816;2023-03-01T07:48:35;2.07;66.48
66019;HTU21D;52787;51.084;5.816;2023-03-01T07:51:04;2.11;66.40
66019;HTU21D;52787;51.084;5.816;2023-03-01T07:53:32;2.12;66.46
66019;HTU21D;52787;51.084;5.816;2023-03-01T07:56:12;2.15;66.24
66019;HTU21D;52787;51.084;5.816;2023-03-01T07:58:41;2.13;66.36
66019;HTU21D;52787;51.084;5.816;2023-03-01T08:01:11;2.14;66.43
66019;HTU21D;52787;51.084;5.816;2023-03-01T08:03:38;2.17;66.34
66019;HTU21D;52787;51.084;5.816;2023-03-01T08:06:07;2.25;66.43
66019;HTU21D;52787;51.084;5.816;2023-03-01T08:08:34;2.31;66.23
66019;HTU21D;52787;51.084;5.816;2023-03-01T08:11:03;2.38;66.14
66019;HTU21D;52787;51.084;5.816;2023-03-01T08:13:30;2.42;66.01
66019;HTU21D;52787;51.084;5.816;2023-03-01T08:16:01;2.36;66.12
66019;HTU21D;52787;51.084;5.816;2023-03-01T08:18:28;2.39;66.12
66019;HTU21D;52787;51.084;5.816;2023-03-01T08:20:54;2.41;65.66
66019;HTU21D;52787;51.084;5.816;2023-03-01T08:23:20;2.45;65.73
66019;HTU21D;52787;51.084;5.816;2023-03-01T08:25:45;2.49;65.59
66019;HTU21D;52787;51.084;5.816;2023-03-01T08:28:11;2.53;65.54
66019;HTU21D;52787;51.084;5.816;2023-03-01T08:30:37;2.59;65.59
66019;HTU21D;52787;51.084;5.816;2023-03-01T08:33:02;2.69;65.78
66019;HTU21D;52787;51.084;5.816;2023-03-01T08:35:28;2.80;65.82
66019;HTU21D;52787;51.084;5.816;2023-03-01T08:37:54;2.90;65.33
66019;HTU21D;52787;51.084;5.816;2023-03-01T08:40:20;2.95;65.08
66019;HTU21D;52787;51.084;5.816;2023-03-01T08:42:45;2.98;64.83
66019;HTU21D;52787;51.084;5.816;2023-03-01T08:45:11;3.05;64.60
66019;HTU21D;52787;51.084;5.816;2023-03-01T08:47:39;3.11;64.83
66019;HTU21D;52787;51.084;5.816;2023-03-01T08:50:05;3.19;64.58
66019;HTU21D;52787;51.084;5.816;2023-03-01T08:52:32;3.26;63.77
66019;HTU21D;52787;51.084;5.816;2023-03-01T08:54:58;3.30;63.53
66019;HTU21D;52787;51.084;5.816;2023-03-01T08:57:24;3.38;63.72
66019;HTU21D;52787;51.084;5.816;2023-03-01T08:59:49;3.47;64.04
66019;HTU21D;52787;51.084;5.816;2023-03-01T09:02:17;3.59;63.73
66019;HTU21D;52787;51.084;5.816;2023-03-01T09:04:44;3.65;63.43
66019;HTU21D;52787;51.084;5.816;2023-03-01T09:07:11;3.72;63.31
66019;HTU21D;52787;51.084;5.816;2023-03-01T09:09:37;3.82;62.75
66019;HTU21D;52787;51.084;5.816;2023-03-01T09:12:03;3.88;62.33
66019;HTU21D;52787;51.084;5.816;2023-03-01T09:14:30;3.95;62.20
66019;HTU21D;52787;51.084;5.816;2023-03-01T09:16:55;4.04;62.12
66019;HTU21D;52787;51.084;5.816;2023-03-01T09:19:21;4.16;61.70
66019;HTU21D;52787;51.084;5.816;2023-03-01T09:21:47;4.27;61.54
66019;HTU21D;52787;51.084;5.816;2023-03-01T09:24:20;4.44;61.30
66019;HTU21D;52787;51.084;5.816;2023-03-01T09:26:48;4.57;60.18
66019;HTU21D;52787;51.084;5.816;2023-03-01T09:29:15;4.65;60.08
66019;HTU21D;52787;51.084;5.816;2023-03-01T09:31:42;4.79;59.53
66019;HTU21D;52787;51.084;5.816;2023-03-01T09:34:08;4.92;59.02
66019;HTU21D;52787;51.084;5.816;2023-03-01T09:36:34;5.07;59.13
66019;HTU21D;52787;51.084;5.816;2023-03-01T09:39:02;5.20;58.50
66019;HTU21D;52787;51.084;5.816;2023-03-01T09:44:42;5.49;57.73
66019;HTU21D;52787;51.084;5.816;2023-03-01T09:47:21;5.65;57.26
66019;HTU21D;52787;51.084;5.816;2023-03-01T09:50:15;5.86;56.16
66019;HTU21D;52787;51.084;5.816;2023-03-01T09:53:06;6.04;55.01
66019;HTU21D;52787;51.084;5.816;2023-03-01T09:55:49;6.14;54.59
66019;HTU21D;52787;51.084;5.816;2023-03-01T10:10:06;8.49;48.62
66019;HTU21D;52787;51.084;5.816;2023-03-01T10:12:37;9.95;44.58
66019;HTU21D;52787;51.084;5.816;2023-03-01T10:17:52;12.36;38.85
66019;HTU21D;52787;51.084;5.816;2023-03-01T10:20:46;13.43;35.74
66019;HTU21D;52787;51.084;5.816;2023-03-01T10:23:15;13.93;34.51
66019;HTU21D;52787;51.084;5.816;2023-03-01T10:29:05;15.07;31.97
66019;HTU21D;52787;51.084;5.816;2023-03-01T10:31:49;15.44;31.27
66019;HTU21D;52787;51.084;5.816;2023-03-01T10:37:08;16.37;29.59
66019;HTU21D;52787;51.084;5.816;2023-03-01T10:39:35;16.59;28.60
66019;HTU21D;52787;51.084;5.816;2023-03-01T10:42:04;16.40;28.79
66019;HTU21D;52787;51.084;5.816;2023-03-01T10:44:46;16.12;29.47
66019;HTU21D;52787;51.084;5.816;2023-03-01T10:47:18;15.45;30.46
66019;HTU21D;52787;51.084;5.816;2023-03-01T10:49:55;14.53;31.85
66019;HTU21D;52787;51.084;5.816;2023-03-01T10:52:26;13.49;33.83
66019;HTU21D;52787;51.084;5.816;2023-03-01T10:55:27;12.53;35.21
66019;HTU21D;52787;51.084;5.816;2023-03-01T11:00:54;11.00;39.23
66019;HTU21D;52787;51.084;5.816;2023-03-01T11:03:24;10.66;39.85
66019;HTU21D;52787;51.084;5.816;2023-03-01T11:05:58;10.60;39.96
66019;HTU21D;52787;51.084;5.816;2023-03-01T11:08:39;11.37;39.14
66019;HTU21D;52787;51.084;5.816;2023-03-01T11:11:33;12.80;36.06
66019;HTU21D;52787;51.084;5.816;2023-03-01T11:16:44;15.03;31.39
66019;HTU21D;52787;51.084;5.816;2023-03-01T11:21:41;17.25;27.71
66019;HTU21D;52787;51.084;5.816;2023-03-01T11:24:14;18.13;25.97
66019;HTU21D;52787;51.084;5.816;2023-03-01T11:26:47;18.86;25.10
66019;HTU21D;52787;51.084;5.816;2023-03-01T11:29:36;19.61;23.75
66019;HTU21D;52787;51.084;5.816;2023-03-01T11:32:08;20.13;22.21
66019;HTU21D;52787;51.084;5.816;2023-03-01T11:35:08;19.84;21.54
66019;HTU21D;52787;51.084;5.816;2023-03-01T11:38:13;18.07;24.10
66019;HTU21D;52787;51.084;5.816;2023-03-01T11:43:56;16.91;27.58
66019;HTU21D;52787;51.084;5.816;2023-03-01T11:49:26;18.43;24.78
66019;HTU21D;52787;51.084;5.816;2023-03-01T12:14:17;22.73;18.07
66019;HTU21D;52787;51.084;5.816;2023-03-01T12:22:59;23.07;17.41
66019;HTU21D;52787;51.084;5.816;2023-03-01T12:31:44;20.10;20.65
66019;HTU21D;52787;51.084;5.816;2023-03-01T12:34:46;19.01;22.46
66019;HTU21D;52787;51.084;5.816;2023-03-01T12:49:06;16.57;26.91
66019;HTU21D;52787;51.084;5.816;2023-03-01T12:51:38;17.78;25.62
66019;HTU21D;52787;51.084;5.816;2023-03-01T12:54:31;19.29;22.88
66019;HTU21D;52787;51.084;5.816;2023-03-01T12:57:09;20.54;20.89
66019;HTU21D;52787;51.084;5.816;2023-03-01T13:00:26;21.27;19.56
66019;HTU21D;52787;51.084;5.816;2023-03-01T13:08:53;22.25;18.78
66019;HTU21D;52787;51.084;5.816;2023-03-01T13:11:32;22.84;18.51
66019;HTU21D;52787;51.084;5.816;2023-03-01T13:16:50;22.67;18.00
66019;HTU21D;52787;51.084;5.816;2023-03-01T13:19:19;22.66;17.99
66019;HTU21D;52787;51.084;5.816;2023-03-01T13:22:29;22.55;17.84
66019;HTU21D;52787;51.084;5.816;2023-03-01T13:25:14;22.61;17.82
66019;HTU21D;52787;51.084;5.816;2023-03-01T13:27:44;22.67;17.86
66019;HTU21D;52787;51.084;5.816;2023-03-01T13:35:55;20.29;19.72
66019;HTU21D;52787;51.084;5.816;2023-03-01T13:41:03;19.15;21.28
66019;HTU21D;52787;51.084;5.816;2023-03-01T13:43:35;19.26;22.01
66019;HTU21D;52787;51.084;5.816;2023-03-01T13:48:38;19.81;20.78
66019;HTU21D;52787;51.084;5.816;2023-03-01T13:51:09;19.56;20.67
66019;HTU21D;52787;51.084;5.816;2023-03-01T13:53:45;18.98;21.04
66019;HTU21D;52787;51.084;5.816;2023-03-01T13:56:27;18.02;22.37
66019;HTU21D;52787;51.084;5.816;2023-03-01T14:01:52;16.70;25.40
66019;HTU21D;52787;51.084;5.816;2023-03-01T14:07:32;16.04;26.87
66019;HTU21D;52787;51.084;5.816;2023-03-01T14:10:02;15.86;27.45
66019;HTU21D;52787;51.084;5.816;2023-03-01T14:15:42;16.29;28.58
66019;HTU21D;52787;51.084;5.816;2023-03-01T14:18:47;17.62;27.15
66019;HTU21D;52787;51.084;5.816;2023-03-01T14:21:17;19.65;23.67
66019;HTU21D;52787;51.084;5.816;2023-03-01T14:23:43;21.68;20.41
66019;HTU21D;52787;51.084;5.816;2023-03-01T14:26:10;23.39;17.94
66019;HTU21D;52787;51.084;5.816;2023-03-01T14:28:38;25.20;15.77
66019;HTU21D;52787;51.084;5.816;2023-03-01T14:34:05;27.78;12.15
66019;HTU21D;52787;51.084;5.816;2023-03-01T14:36:33;28.50;11.61
66019;HTU21D;52787;51.084;5.816;2023-03-01T14:39:00;29.09;10.89
66019;HTU21D;52787;51.084;5.816;2023-03-01T14:41:35;29.67;10.54
66019;HTU21D;52787;51.084;5.816;2023-03-01T14:44:06;30.09;9.92
66019;HTU21D;52787;51.084;5.816;2023-03-01T14:46:36;30.38;9.45
66019;HTU21D;52787;51.084;5.816;2023-03-01T14:49:11;30.94;9.17
66019;HTU21D;52787;51.084;5.816;2023-03-01T14:51:40;31.22;8.87
66019;HTU21D;52787;51.084;5.816;2023-03-01T14:54:40;31.49;8.34
66019;HTU21D;52787;51.084;5.816;2023-03-01T14:57:20;31.37;8.25
66019;HTU21D;52787;51.084;5.816;2023-03-01T14:59:57;31.18;8.68
66019;HTU21D;52787;51.084;5.816;2023-03-01T15:02:28;31.23;8.56
66019;HTU21D;52787;51.084;5.816;2023-03-01T15:05:00;31.00;8.11
66019;HTU21D;52787;51.084;5.816;2023-03-01T15:07:34;30.47;8.45
66019;HTU21D;52787;51.084;5.816;2023-03-01T15:10:05;30.07;8.66
66019;HTU21D;52787;51.084;5.816;2023-03-01T15:12:37;29.67;9.09
66019;HTU21D;52787;51.084;5.816;2023-03-01T15:15:33;29.75;9.27
66019;HTU21D;52787;51.084;5.816;2023-03-01T15:18:15;30.00;8.88
66019;HTU21D;52787;51.084;5.816;2023-03-01T15:20:46;29.83;8.71
66019;HTU21D;52787;51.084;5.816;2023-03-01T15:23:23;29.37;9.01
66019;HTU21D;52787;51.084;5.816;2023-03-01T15:25:53;29.19;9.27
66019;HTU21D;52787;51.084;5.816;2023-03-01T15:28:27;28.98;9.72
66019;HTU21D;52787;51.084;5.816;2023-03-01T15:31:32;28.76;9.98
66019;HTU21D;52787;51.084;5.816;2023-03-01T15:36:54;26.97;10.07
66019;HTU21D;52787;51.084;5.816;2023-03-01T15:39:39;24.23;12.63
66019;HTU21D;52787;51.084;5.816;2023-03-01T15:48:17;17.82;21.60
66019;HTU21D;52787;51.084;5.816;2023-03-01T15:50:54;16.56;23.46
66019;HTU21D;52787;51.084;5.816;2023-03-01T15:53:21;15.72;25.27
66019;HTU21D;52787;51.084;5.816;2023-03-01T15:55:46;15.04;26.72
66019;HTU21D;52787;51.084;5.816;2023-03-01T15:58:21;14.37;27.98
66019;HTU21D;52787;51.084;5.816;2023-03-01T16:00:49;13.85;28.83
66019;HTU21D;52787;51.084;5.816;2023-03-01T16:03:22;13.45;30.03
66019;HTU21D;52787;51.084;5.816;2023-03-01T16:05:49;13.23;31.09
66019;HTU21D;52787;51.084;5.816;2023-03-01T16:08:17;13.08;31.53
66019;HTU21D;52787;51.084;5.816;2023-03-01T16:10:44;12.82;32.08
66019;HTU21D;52787;51.084;5.816;2023-03-01T16:13:11;12.60;32.66
66019;HTU21D;52787;51.084;5.816;2023-03-01T16:15:39;12.45;33.15
66019;HTU21D;52787;51.084;5.816;2023-03-01T16:18:06;12.32;33.83
66019;HTU21D;52787;51.084;5.816;2023-03-01T16:20:34;12.20;34.43
66019;HTU21D;52787;51.084;5.816;2023-03-01T16:23:05;12.10;34.76
66019;HTU21D;52787;51.084;5.816;2023-03-01T16:25:32;11.92;35.05
66019;HTU21D;52787;51.084;5.816;2023-03-01T16:27:59;11.76;35.27
66019;HTU21D;52787;51.084;5.816;2023-03-01T16:30:29;11.54;36.04
66019;HTU21D;52787;51.084;5.816;2023-03-01T16:32:55;11.51;36.08
66019;HTU21D;52787;51.084;5.816;2023-03-01T16:35:21;11.48;36.29
66019;HTU21D;52787;51.084;5.816;2023-03-01T16:37:48;11.44;36.26
66019;HTU21D;52787;51.084;5.816;2023-03-01T16:40:27;11.39;36.49
66019;HTU21D;52787;51.084;5.816;2023-03-01T16:42:55;11.34;36.80
66019;HTU21D;52787;51.084;5.816;2023-03-01T16:45:34;11.15;36.42
66019;HTU21D;52787;51.084;5.816;2023-03-01T16:48:02;11.03;36.82
66019;HTU21D;52787;51.084;5.816;2023-03-01T16:50:28;10.95;36.96
66019;HTU21D;52787;51.084;5.816;2023-03-01T16:52:54;10.85;37.04
66019;HTU21D;52787;51.084;5.816;2023-03-01T16:55:19;10.72;37.35
66019;HTU21D;52787;51.084;5.816;2023-03-01T16:57:45;10.58;37.50
66019;HTU21D;52787;51.084;5.816;2023-03-01T17:00:12;10.44;37.30
66019;HTU21D;52787;51.084;5.816;2023-03-01T17:02:39;10.30;37.66
66019;HTU21D;52787;51.084;5.816;2023-03-01T17:05:07;10.15;37.80
66019;HTU21D;52787;51.084;5.816;2023-03-01T17:07:35;10.01;38.27
66019;HTU21D;52787;51.084;5.816;2023-03-01T17:10:03;9.97;38.61
66019;HTU21D;52787;51.084;5.816;2023-03-01T17:12:30;9.94;38.82
66019;HTU21D;52787;51.084;5.816;2023-03-01T17:14:57;9.92;39.09
66019;HTU21D;52787;51.084;5.816;2023-03-01T17:17:23;9.92;39.62
66019;HTU21D;52787;51.084;5.816;2023-03-01T17:19:49;9.90;39.90
66019;HTU21D;52787;51.084;5.816;2023-03-01T17:22:15;9.81;40.13
66019;HTU21D;52787;51.084;5.816;2023-03-01T17:24:43;9.71;40.31
66019;HTU21D;52787;51.084;5.816;2023-03-01T17:27:10;9.63;40.59
66019;HTU21D;52787;51.084;5.816;2023-03-01T17:29:38;9.53;40.91
66019;HTU21D;52787;51.084;5.816;2023-03-01T17:32:06;9.46;41.26
66019;HTU21D;52787;51.084;5.816;2023-03-01T17:34:33;9.45;41.45
66019;HTU21D;52787;51.084;5.816;2023-03-01T17:36:59;9.44;41.30
66019;HTU21D;52787;51.084;5.816;2023-03-01T17:39:25;9.34;41.42
66019;HTU21D;52787;51.084;5.816;2023-03-01T17:41:56;9.22;41.67
66019;HTU21D;52787;51.084;5.816;2023-03-01T17:44:22;9.07;41.93
66019;HTU21D;52787;51.084;5.816;2023-03-01T17:46:48;9.01;42.21
66019;HTU21D;52787;51.084;5.816;2023-03-01T17:49:14;9.04;42.12
66019;HTU21D;52787;51.084;5.816;2023-03-01T17:51:41;9.05;41.98
66019;HTU21D;52787;51.084;5.816;2023-03-01T17:54:07;9.00;41.95
66019;HTU21D;52787;51.084;5.816;2023-03-01T17:56:33;8.96;42.19
66019;HTU21D;52787;51.084;5.816;2023-03-01T17:58:59;8.97;42.14
66019;HTU21D;52787;51.084;5.816;2023-03-01T18:01:25;8.98;42.05
66019;HTU21D;52787;51.084;5.816;2023-03-01T18:03:52;8.97;41.89
66019;HTU21D;52787;51.084;5.816;2023-03-01T18:06:25;8.94;41.92
66019;HTU21D;52787;51.084;5.816;2023-03-01T18:08:53;8.92;41.90